Wind From: 10-12-2017 19:04 Until: 11-12-2017 16:00 warning for: Wind Level: Orange info button

Power and phone distribution networks may be disrupted for relatively long periods., Roofs and chimneys can be damaged. , Tree branches may break. , Vehicles can be deported. , Traffic may be disrupted, particularly on secondary roads in forest areas. Limit your trips. , Limit your speed in highway driving, especially if you drive a vehicle or hitch sensitive to wind. , Do not go for walks in forests or along the coast., In town, be vigilant against possible falling objects., Do not work on roofs and do not touch any electrical line fallen on the ground., Store or secure sensitive objects to wind or likely to be damaged., Always install power generators outside buildings. 


Meteo18 Weather Cam more information Meteo18 Weather Cam


Thunder radar more information blitzortung!


Rain radar more information rain snow radar


Visit our other weather sites:

Template documentation
and downloads

And another site



Weather Underground History page Text

Daily Summary for June 25, 2017 Units:  Both    English   Metric
« Previous Day
Next Day »
Daily Weekly Monthly Yearly Custom
  High: Low: Average:
Temperature: 78.1 °F /  25.6 °C 55.8 °F /  13.2 °C 67.5 °F /  19.7 °C
Dew Point: 61 °F /  16.1 °C 51.3 °F /  10.7 °C 57.2 °F /  14 °C
Humidity: 85 % 53 % 71 %
Wind Speed: 12 mph /  19.3 km/h - 3.3 mph /  5.3 km/h
Wind Gust: 16 mph /  25.7 km/h - -
Wind:- - WSW
Pressure: 30.1 in /  1020.2 hPa 30 in /  1016.5 hPa -
Precipitation: 0 in /  0.0 mm    
Historical Graphs
 
 
Tabular Data for June 25, 2017
Time Temperature Dew Point Pressure Wind Wind Speed Wind Gust Humidity Rainfall Rate (Hourly)
00:02 63.7 °F /  17.6 °C 54.9 °F /  12.7 °C 30.1 in /  1018.8 hPa Calm   1 mph /  1.6 km/h 73 % 0 in /  0.0 mm
00:12 63.1 °F /  17.3 °C 54.7 °F /  12.6 °C 30.1 in /  1018.8 hPa Calm     74 % 0 in /  0.0 mm
00:17 63 °F /  17.2 °C 54.5 °F /  12.5 °C 30.1 in /  1019.2 hPa Calm     74 % 0 in /  0.0 mm
00:22 62.8 °F /  17.1 °C 54.3 °F /  12.4 °C 30.1 in /  1018.8 hPa Calm     74 % 0 in /  0.0 mm
00:27 62.4 °F /  16.9 °C 54.3 °F /  12.4 °C 30.1 in /  1018.8 hPa Calm     75 % 0 in /  0.0 mm
00:32 62.2 °F /  16.8 °C 54.1 °F /  12.3 °C 30.1 in /  1018.8 hPa Calm     75 % 0 in /  0.0 mm
00:37 62.4 °F /  16.9 °C 54.3 °F /  12.4 °C 30.1 in /  1018.8 hPa SSW 2 mph /  3.2 km/h   75 % 0 in /  0.0 mm
00:42 63.7 °F /  17.6 °C 55.2 °F /  12.9 °C 30.1 in /  1018.8 hPa SW 3 mph /  4.8 km/h 3 mph /  4.8 km/h 74 % 0 in /  0.0 mm
00:52 64.9 °F /  18.3 °C 54.9 °F /  12.7 °C 30.1 in /  1018.8 hPa WSW 2 mph /  3.2 km/h 5 mph /  8.0 km/h 70 % 0 in /  0.0 mm
01:02 65.5 °F /  18.6 °C 55 °F /  12.8 °C 30.1 in /  1018.8 hPa West 4 mph /  6.4 km/h 5 mph /  8.0 km/h 69 % 0 in /  0.0 mm
01:07 65.5 °F /  18.6 °C 55 °F /  12.8 °C 30.1 in /  1018.8 hPa West 3 mph /  4.8 km/h 5 mph /  8.0 km/h 69 % 0 in /  0.0 mm
01:12 65.3 °F /  18.5 °C 54.9 °F /  12.7 °C 30.1 in /  1018.8 hPa West 1 mph /  1.6 km/h 5 mph /  8.0 km/h 69 % 0 in /  0.0 mm
01:17 65.5 °F /  18.6 °C 55 °F /  12.8 °C 30.1 in /  1018.8 hPa West 2 mph /  3.2 km/h 5 mph /  8.0 km/h 69 % 0 in /  0.0 mm
01:22 65.5 °F /  18.6 °C 55 °F /  12.8 °C 30.1 in /  1018.8 hPa WNW 1 mph /  1.6 km/h 5 mph /  8.0 km/h 69 % 0 in /  0.0 mm
01:32 65.8 °F /  18.8 °C 55 °F /  12.8 °C 30.1 in /  1018.8 hPa West 1 mph /  1.6 km/h 6 mph /  9.7 km/h 68 % 0 in /  0.0 mm
01:42 65.7 °F /  18.7 °C 54.3 °F /  12.4 °C 30.1 in /  1018.8 hPa WNW 2 mph /  3.2 km/h 5 mph /  8.0 km/h 67 % 0 in /  0.0 mm
01:52 65.8 °F /  18.8 °C 54.1 °F /  12.3 °C 30.1 in /  1018.8 hPa WNW 3 mph /  4.8 km/h 6 mph /  9.7 km/h 66 % 0 in /  0.0 mm
02:02 66 °F /  18.9 °C 54 °F /  12.2 °C 30.1 in /  1018.8 hPa West 7 mph /  11.3 km/h 8 mph /  12.9 km/h 65 % 0 in /  0.0 mm
02:07 66.2 °F /  19.0 °C 54.1 °F /  12.3 °C 30.1 in /  1018.8 hPa WNW 3 mph /  4.8 km/h 14 mph /  22.5 km/h 65 % 0 in /  0.0 mm
02:12 66 °F /  18.9 °C 54 °F /  12.2 °C 30.1 in /  1018.8 hPa WSW 4 mph /  6.4 km/h 14 mph /  22.5 km/h 65 % 0 in /  0.0 mm
02:22 65.7 °F /  18.7 °C 54 °F /  12.2 °C 30.1 in /  1018.8 hPa WNW 5 mph /  8.0 km/h 11 mph /  17.7 km/h 66 % 0 in /  0.0 mm
02:27 65.7 °F /  18.7 °C 54 °F /  12.2 °C 30.1 in /  1018.8 hPa West 3 mph /  4.8 km/h 9 mph /  14.5 km/h 66 % 0 in /  0.0 mm
02:32 65.3 °F /  18.5 °C 54.1 °F /  12.3 °C 30.1 in /  1018.8 hPa WNW 2 mph /  3.2 km/h 9 mph /  14.5 km/h 67 % 0 in /  0.0 mm
02:42 64.9 °F /  18.3 °C 54.1 °F /  12.3 °C 30.1 in /  1018.8 hPa West 4 mph /  6.4 km/h 9 mph /  14.5 km/h 68 % 0 in /  0.0 mm
02:47 64.9 °F /  18.3 °C 54.1 °F /  12.3 °C 30.1 in /  1018.8 hPa West 7 mph /  11.3 km/h 9 mph /  14.5 km/h 68 % 0 in /  0.0 mm
02:52 64.8 °F /  18.2 °C 54 °F /  12.2 °C 30.1 in /  1019.2 hPa West 6 mph /  9.7 km/h 9 mph /  14.5 km/h 68 % 0 in /  0.0 mm
02:57 64.6 °F /  18.1 °C 53.8 °F /  12.1 °C 30.1 in /  1019.2 hPa WSW 3 mph /  4.8 km/h 9 mph /  14.5 km/h 68 % 0 in /  0.0 mm
03:02 64.4 °F /  18.0 °C 53.6 °F /  12.0 °C 30.1 in /  1019.2 hPa West 2 mph /  3.2 km/h 9 mph /  14.5 km/h 68 % 0 in /  0.0 mm
03:07 64 °F /  17.8 °C 53.6 °F /  12.0 °C 30.1 in /  1019.2 hPa West 3 mph /  4.8 km/h 7 mph /  11.3 km/h 69 % 0 in /  0.0 mm
03:12 63.9 °F /  17.7 °C 54 °F /  12.2 °C 30.1 in /  1019.2 hPa WSW 4 mph /  6.4 km/h 7 mph /  11.3 km/h 70 % 0 in /  0.0 mm
03:22 63.3 °F /  17.4 °C 53.4 °F /  11.9 °C 30.1 in /  1019.2 hPa West 5 mph /  8.0 km/h 5 mph /  8.0 km/h 70 % 0 in /  0.0 mm
03:32 63.1 °F /  17.3 °C 53.6 °F /  12.0 °C 30.1 in /  1019.2 hPa West 2 mph /  3.2 km/h 6 mph /  9.7 km/h 71 % 0 in /  0.0 mm
03:42 63 °F /  17.2 °C 53.4 °F /  11.9 °C 30.1 in /  1018.8 hPa WSW 1 mph /  1.6 km/h 6 mph /  9.7 km/h 71 % 0 in /  0.0 mm
03:47 62.6 °F /  17.0 °C 53.4 °F /  11.9 °C 30.1 in /  1019.2 hPa West 1 mph /  1.6 km/h 6 mph /  9.7 km/h 72 % 0 in /  0.0 mm
03:52 62.4 °F /  16.9 °C 53.6 °F /  12.0 °C 30.1 in /  1019.2 hPa SW 3 mph /  4.8 km/h 6 mph /  9.7 km/h 73 % 0 in /  0.0 mm
03:57 62.2 °F /  16.8 °C 53.4 °F /  11.9 °C 30.1 in /  1019.2 hPa West 1 mph /  1.6 km/h 4 mph /  6.4 km/h 73 % 0 in /  0.0 mm
04:02 61.9 °F /  16.6 °C 53.4 °F /  11.9 °C 30.1 in /  1019.2 hPa West 2 mph /  3.2 km/h 4 mph /  6.4 km/h 74 % 0 in /  0.0 mm
04:07 61.5 °F /  16.4 °C 53.2 °F /  11.8 °C 30.1 in /  1019.2 hPa West 1 mph /  1.6 km/h 4 mph /  6.4 km/h 74 % 0 in /  0.0 mm
04:12 61.5 °F /  16.4 °C 53.2 °F /  11.8 °C 30.1 in /  1019.2 hPa WNW 5 mph /  8.0 km/h 5 mph /  8.0 km/h 74 % 0 in /  0.0 mm
04:17 61.3 °F /  16.3 °C 53.4 °F /  11.9 °C 30.1 in /  1019.2 hPa WSW 4 mph /  6.4 km/h 5 mph /  8.0 km/h 75 % 0 in /  0.0 mm
04:27 61.2 °F /  16.2 °C 53.2 °F /  11.8 °C 30.1 in /  1019.2 hPa WSW 1 mph /  1.6 km/h 5 mph /  8.0 km/h 75 % 0 in /  0.0 mm
04:32 61 °F /  16.1 °C 53.4 °F /  11.9 °C 30.1 in /  1019.2 hPa WSW 2 mph /  3.2 km/h 5 mph /  8.0 km/h 76 % 0 in /  0.0 mm
04:37 60.4 °F /  15.8 °C 52.9 °F /  11.6 °C 30.1 in /  1019.2 hPa WSW 2 mph /  3.2 km/h 4 mph /  6.4 km/h 76 % 0 in /  0.0 mm
04:42 60.3 °F /  15.7 °C 53.1 °F /  11.7 °C 30.1 in /  1019.2 hPa SW 1 mph /  1.6 km/h 4 mph /  6.4 km/h 77 % 0 in /  0.0 mm
04:47 60.1 °F /  15.6 °C 52.9 °F /  11.6 °C 30.1 in /  1019.2 hPa SSW 2 mph /  3.2 km/h 6 mph /  9.7 km/h 77 % 0 in /  0.0 mm
04:52 59.9 °F /  15.5 °C 53.1 °F /  11.7 °C 30.1 in /  1019.2 hPa SSW 2 mph /  3.2 km/h 6 mph /  9.7 km/h 78 % 0 in /  0.0 mm
05:02 59.4 °F /  15.2 °C 52.5 °F /  11.4 °C 30.1 in /  1019.2 hPa SW 3 mph /  4.8 km/h 5 mph /  8.0 km/h 78 % 0 in /  0.0 mm
05:12 59.4 °F /  15.2 °C 52.9 °F /  11.6 °C 30.1 in /  1019.2 hPa SW 2 mph /  3.2 km/h 7 mph /  11.3 km/h 79 % 0 in /  0.0 mm
05:22 58.5 °F /  14.7 °C 52.7 °F /  11.5 °C 30.1 in /  1019.5 hPa SSW 4 mph /  6.4 km/h 7 mph /  11.3 km/h 81 % 0 in /  0.0 mm
05:32 58.3 °F /  14.6 °C 52.9 °F /  11.6 °C 30.1 in /  1019.5 hPa SW 1 mph /  1.6 km/h 6 mph /  9.7 km/h 82 % 0 in /  0.0 mm
05:42 57.9 °F /  14.4 °C 52.5 °F /  11.4 °C 30.1 in /  1019.5 hPa West 2 mph /  3.2 km/h 6 mph /  9.7 km/h 82 % 0 in /  0.0 mm
05:52 57.6 °F /  14.2 °C 52.2 °F /  11.2 °C 30.1 in /  1019.5 hPa Calm   5 mph /  8.0 km/h 82 % 0 in /  0.0 mm
06:02 57.4 °F /  14.1 °C 52.3 °F /  11.3 °C 30.1 in /  1019.5 hPa SW 4 mph /  6.4 km/h 4 mph /  6.4 km/h 83 % 0 in /  0.0 mm
06:07 57.2 °F /  14.0 °C 52.2 °F /  11.2 °C 30.1 in /  1019.5 hPa WSW 4 mph /  6.4 km/h 5 mph /  8.0 km/h 83 % 0 in /  0.0 mm
06:12 57 °F /  13.9 °C 52 °F /  11.1 °C 30.1 in /  1019.5 hPa WSW 1 mph /  1.6 km/h 5 mph /  8.0 km/h 83 % 0 in /  0.0 mm
06:17 56.8 °F /  13.8 °C 52 °F /  11.1 °C 30.1 in /  1019.5 hPa Calm   5 mph /  8.0 km/h 84 % 0 in /  0.0 mm
06:22 56.7 °F /  13.7 °C 51.8 °F /  11.0 °C 30.1 in /  1019.5 hPa Calm   5 mph /  8.0 km/h 84 % 0 in /  0.0 mm
06:32 55.9 °F /  13.3 °C 51.4 °F /  10.8 °C 30.1 in /  1019.9 hPa SE 1 mph /  1.6 km/h 4 mph /  6.4 km/h 85 % 0 in /  0.0 mm
06:37 55.8 °F /  13.2 °C 51.3 °F /  10.7 °C 30.1 in /  1019.9 hPa Calm   2 mph /  3.2 km/h 85 % 0 in /  0.0 mm
06:42 56.1 °F /  13.4 °C 51.6 °F /  10.9 °C 30.1 in /  1019.9 hPa South 1 mph /  1.6 km/h 2 mph /  3.2 km/h 85 % 0 in /  0.0 mm
06:47 56.5 °F /  13.6 °C 52 °F /  11.1 °C 30.1 in /  1019.9 hPa SW 2 mph /  3.2 km/h 3 mph /  4.8 km/h 85 % 0 in /  0.0 mm
06:57 56.8 °F /  13.8 °C 52 °F /  11.1 °C 30.1 in /  1019.5 hPa SW 2 mph /  3.2 km/h 3 mph /  4.8 km/h 84 % 0 in /  0.0 mm
07:07 57 °F /  13.9 °C 52.5 °F /  11.4 °C 30.1 in /  1019.9 hPa SSW 1 mph /  1.6 km/h 4 mph /  6.4 km/h 85 % 0 in /  0.0 mm
07:12 57.6 °F /  14.2 °C 53.1 °F /  11.7 °C 30.1 in /  1019.9 hPa SSW 3 mph /  4.8 km/h 4 mph /  6.4 km/h 85 % 0 in /  0.0 mm
07:17 58.3 °F /  14.6 °C 53.8 °F /  12.1 °C 30.1 in /  1019.9 hPa SSW 3 mph /  4.8 km/h 4 mph /  6.4 km/h 85 % 0 in /  0.0 mm
07:22 58.8 °F /  14.9 °C 54 °F /  12.2 °C 30.1 in /  1019.9 hPa SW 5 mph /  8.0 km/h 5 mph /  8.0 km/h 84 % 0 in /  0.0 mm
07:32 59.5 °F /  15.3 °C 54 °F /  12.2 °C 30.1 in /  1019.9 hPa WSW 4 mph /  6.4 km/h 7 mph /  11.3 km/h 82 % 0 in /  0.0 mm
07:37 59.7 °F /  15.4 °C 54.1 °F /  12.3 °C 30.1 in /  1019.9 hPa WSW 7 mph /  11.3 km/h 10 mph /  16.1 km/h 82 % 0 in /  0.0 mm
07:42 59.7 °F /  15.4 °C 54.1 °F /  12.3 °C 30.1 in /  1019.9 hPa WSW 4 mph /  6.4 km/h 10 mph /  16.1 km/h 82 % 0 in /  0.0 mm
07:52 59.7 °F /  15.4 °C 54.1 °F /  12.3 °C 30.1 in /  1019.9 hPa SW 8 mph /  12.9 km/h 11 mph /  17.7 km/h 82 % 0 in /  0.0 mm
08:02 60.1 °F /  15.6 °C 54.5 °F /  12.5 °C 30.1 in /  1019.9 hPa SW 11 mph /  17.7 km/h 12 mph /  19.3 km/h 82 % 0 in /  0.0 mm
08:07 60.3 °F /  15.7 °C 55 °F /  12.8 °C 30.1 in /  1019.9 hPa WSW 6 mph /  9.7 km/h 12 mph /  19.3 km/h 83 % 0 in /  0.0 mm
08:12 60.4 °F /  15.8 °C 54.9 °F /  12.7 °C 30.1 in /  1019.9 hPa WSW 5 mph /  8.0 km/h 12 mph /  19.3 km/h 82 % 0 in /  0.0 mm
08:17 60.4 °F /  15.8 °C 55.2 °F /  12.9 °C 30.1 in /  1019.9 hPa WSW 3 mph /  4.8 km/h 12 mph /  19.3 km/h 83 % 0 in /  0.0 mm
08:22 60.8 °F /  16.0 °C 55.2 °F /  12.9 °C 30.1 in /  1019.9 hPa West 9 mph /  14.5 km/h 12 mph /  19.3 km/h 82 % 0 in /  0.0 mm
08:32 61.2 °F /  16.2 °C 55.9 °F /  13.3 °C 30.1 in /  1019.9 hPa SW 5 mph /  8.0 km/h 15 mph /  24.1 km/h 83 % 0 in /  0.0 mm
08:37 61.5 °F /  16.4 °C 55.9 °F /  13.3 °C 30.1 in /  1019.9 hPa West 4 mph /  6.4 km/h 12 mph /  19.3 km/h 82 % 0 in /  0.0 mm
08:42 61.9 °F /  16.6 °C 55.9 °F /  13.3 °C 30.1 in /  1019.9 hPa WSW 3 mph /  4.8 km/h 12 mph /  19.3 km/h 81 % 0 in /  0.0 mm
08:47 62.2 °F /  16.8 °C 56.3 °F /  13.5 °C 30.1 in /  1019.9 hPa West 5 mph /  8.0 km/h 12 mph /  19.3 km/h 81 % 0 in /  0.0 mm
08:52 62.4 °F /  16.9 °C 56.1 °F /  13.4 °C 30.1 in /  1019.9 hPa WSW 4 mph /  6.4 km/h 12 mph /  19.3 km/h 80 % 0 in /  0.0 mm
09:02 63.1 °F /  17.3 °C 57.2 °F /  14.0 °C 30.1 in /  1019.9 hPa SSW 2 mph /  3.2 km/h 12 mph /  19.3 km/h 81 % 0 in /  0.0 mm
09:12 63.3 °F /  17.4 °C 56.7 °F /  13.7 °C 30.1 in /  1019.5 hPa SW 5 mph /  8.0 km/h 13 mph /  20.9 km/h 79 % 0 in /  0.0 mm
09:22 63.1 °F /  17.3 °C 56.5 °F /  13.6 °C 30.1 in /  1019.5 hPa WSW 5 mph /  8.0 km/h 11 mph /  17.7 km/h 79 % 0 in /  0.0 mm
09:32 63.3 °F /  17.4 °C 56.3 °F /  13.5 °C 30.1 in /  1019.5 hPa WSW 3 mph /  4.8 km/h 10 mph /  16.1 km/h 78 % 0 in /  0.0 mm
09:37 63.5 °F /  17.5 °C 56.5 °F /  13.6 °C 30.1 in /  1019.9 hPa SW 5 mph /  8.0 km/h 11 mph /  17.7 km/h 78 % 0 in /  0.0 mm
09:42 63.7 °F /  17.6 °C 56.3 °F /  13.5 °C 30.1 in /  1019.5 hPa WSW 7 mph /  11.3 km/h 11 mph /  17.7 km/h 77 % 0 in /  0.0 mm
09:47 63.7 °F /  17.6 °C 56.7 °F /  13.7 °C 30.1 in /  1019.5 hPa SSW 6 mph /  9.7 km/h 11 mph /  17.7 km/h 78 % 0 in /  0.0 mm
09:52 64 °F /  17.8 °C 57 °F /  13.9 °C 30.1 in /  1019.9 hPa SW 6 mph /  9.7 km/h 11 mph /  17.7 km/h 78 % 0 in /  0.0 mm
10:02 64.2 °F /  17.9 °C 56.5 °F /  13.6 °C 30.1 in /  1019.5 hPa WNW 5 mph /  8.0 km/h 11 mph /  17.7 km/h 76 % 0 in /  0.0 mm
10:12 64.4 °F /  18.0 °C 56.3 °F /  13.5 °C 30.1 in /  1019.9 hPa West 4 mph /  6.4 km/h 13 mph /  20.9 km/h 75 % 0 in /  0.0 mm
10:17 64.4 °F /  18.0 °C 56.3 °F /  13.5 °C 30.1 in /  1019.9 hPa West 10 mph /  16.1 km/h 16 mph /  25.7 km/h 75 % 0 in /  0.0 mm
10:22 64.6 °F /  18.1 °C 56.8 °F /  13.8 °C 30.1 in /  1019.9 hPa West 6 mph /  9.7 km/h 16 mph /  25.7 km/h 76 % 0 in /  0.0 mm
10:32 64.8 °F /  18.2 °C 57 °F /  13.9 °C 30.1 in /  1019.9 hPa WSW 3 mph /  4.8 km/h 16 mph /  25.7 km/h 76 % 0 in /  0.0 mm
10:37 64.6 °F /  18.1 °C 56.8 °F /  13.8 °C 30.1 in /  1019.9 hPa West 9 mph /  14.5 km/h 13 mph /  20.9 km/h 76 % 0 in /  0.0 mm
10:42 64.6 °F /  18.1 °C 57.2 °F /  14.0 °C 30.1 in /  1019.9 hPa West 4 mph /  6.4 km/h 13 mph /  20.9 km/h 77 % 0 in /  0.0 mm
10:47 64.9 °F /  18.3 °C 57.9 °F /  14.4 °C 30.1 in /  1019.9 hPa West 3 mph /  4.8 km/h 13 mph /  20.9 km/h 78 % 0 in /  0.0 mm
10:52 64.9 °F /  18.3 °C 57.9 °F /  14.4 °C 30.1 in /  1019.9 hPa WSW 11 mph /  17.7 km/h 13 mph /  20.9 km/h 78 % 0 in /  0.0 mm
11:02 64.6 °F /  18.1 °C 58.3 °F /  14.6 °C 30.1 in /  1019.9 hPa West 4 mph /  6.4 km/h 11 mph /  17.7 km/h 80 % 0 in /  0.0 mm
11:12 64.6 °F /  18.1 °C 58.3 °F /  14.6 °C 30.1 in /  1019.9 hPa WSW 9 mph /  14.5 km/h 11 mph /  17.7 km/h 80 % 0 in /  0.0 mm
11:17 64.2 °F /  17.9 °C 58.3 °F /  14.6 °C 30.1 in /  1019.9 hPa WSW 12 mph /  19.3 km/h 12 mph /  19.3 km/h 81 % 0 in /  0.0 mm
11:22 64 °F /  17.8 °C 58.5 °F /  14.7 °C 30.1 in /  1019.9 hPa West 6 mph /  9.7 km/h 12 mph /  19.3 km/h 82 % 0 in /  0.0 mm
11:32 64.6 °F /  18.1 °C 58.3 °F /  14.6 °C 30.1 in /  1019.9 hPa WSW 5 mph /  8.0 km/h 12 mph /  19.3 km/h 80 % 0 in /  0.0 mm
11:37 64.8 °F /  18.2 °C 58.5 °F /  14.7 °C 30.1 in /  1019.9 hPa WNW 4 mph /  6.4 km/h 10 mph /  16.1 km/h 80 % 0 in /  0.0 mm
11:42 64.8 °F /  18.2 °C 58.8 °F /  14.9 °C 30.1 in /  1019.9 hPa West 7 mph /  11.3 km/h 10 mph /  16.1 km/h 81 % 0 in /  0.0 mm
11:52 64.9 °F /  18.3 °C 58.6 °F /  14.8 °C 30.1 in /  1019.9 hPa SW 4 mph /  6.4 km/h 12 mph /  19.3 km/h 80 % 0 in /  0.0 mm
12:02 65.3 °F /  18.5 °C 59 °F /  15.0 °C 30.1 in /  1019.9 hPa SW 8 mph /  12.9 km/h 12 mph /  19.3 km/h 80 % 0 in /  0.0 mm
12:07 65.8 °F /  18.8 °C 59.5 °F /  15.3 °C 30.1 in /  1019.9 hPa SSW 2 mph /  3.2 km/h 12 mph /  19.3 km/h 80 % 0 in /  0.0 mm
12:12 65.8 °F /  18.8 °C 59.2 °F /  15.1 °C 30.1 in /  1019.9 hPa SSW 6 mph /  9.7 km/h 12 mph /  19.3 km/h 79 % 0 in /  0.0 mm
12:17 66 °F /  18.9 °C 59.4 °F /  15.2 °C 30.1 in /  1020.2 hPa WSW 5 mph /  8.0 km/h 11 mph /  17.7 km/h 79 % 0 in /  0.0 mm
12:22 66.4 °F /  19.1 °C 59.4 °F /  15.2 °C 30.1 in /  1019.9 hPa SW 6 mph /  9.7 km/h 11 mph /  17.7 km/h 78 % 0 in /  0.0 mm
12:32 66.4 °F /  19.1 °C 59.4 °F /  15.2 °C 30.1 in /  1019.9 hPa WSW 2 mph /  3.2 km/h 11 mph /  17.7 km/h 78 % 0 in /  0.0 mm
12:42 66.9 °F /  19.4 °C 59.9 °F /  15.5 °C 30.1 in /  1019.9 hPa SW 5 mph /  8.0 km/h 11 mph /  17.7 km/h 78 % 0 in /  0.0 mm
12:52 67.1 °F /  19.5 °C 60.1 °F /  15.6 °C 30.1 in /  1019.9 hPa SW 8 mph /  12.9 km/h 11 mph /  17.7 km/h 78 % 0 in /  0.0 mm
13:02 67.8 °F /  19.9 °C 59.9 °F /  15.5 °C 30.1 in /  1019.9 hPa SSW 3 mph /  4.8 km/h 12 mph /  19.3 km/h 76 % 0 in /  0.0 mm
13:12 68.4 °F /  20.2 °C 60.4 °F /  15.8 °C 30.1 in /  1019.9 hPa West 5 mph /  8.0 km/h 11 mph /  17.7 km/h 76 % 0 in /  0.0 mm
13:17 68.4 °F /  20.2 °C 60.1 °F /  15.6 °C 30.1 in /  1019.9 hPa West 4 mph /  6.4 km/h 11 mph /  17.7 km/h 75 % 0 in /  0.0 mm
13:22 68.5 °F /  20.3 °C 60.6 °F /  15.9 °C 30.1 in /  1019.9 hPa West 7 mph /  11.3 km/h 11 mph /  17.7 km/h 76 % 0 in /  0.0 mm
13:32 69.1 °F /  20.6 °C 60.4 °F /  15.8 °C 30.1 in /  1019.9 hPa West 6 mph /  9.7 km/h 11 mph /  17.7 km/h 74 % 0 in /  0.0 mm
13:37 69.3 °F /  20.7 °C 61 °F /  16.1 °C 30.1 in /  1019.9 hPa WSW 3 mph /  4.8 km/h 11 mph /  17.7 km/h 75 % 0 in /  0.0 mm
13:42 69.6 °F /  20.9 °C 60.3 °F /  15.7 °C 30.1 in /  1019.9 hPa West 5 mph /  8.0 km/h 11 mph /  17.7 km/h 72 % 0 in /  0.0 mm
13:47 69.4 °F /  20.8 °C 60.1 °F /  15.6 °C 30.1 in /  1019.9 hPa SW 7 mph /  11.3 km/h 11 mph /  17.7 km/h 72 % 0 in /  0.0 mm
13:52 69.6 °F /  20.9 °C 59.7 °F /  15.4 °C 30.1 in /  1019.9 hPa West 3 mph /  4.8 km/h 14 mph /  22.5 km/h 71 % 0 in /  0.0 mm
13:57 69.4 °F /  20.8 °C 60.1 °F /  15.6 °C 30.1 in /  1019.9 hPa WSW 7 mph /  11.3 km/h 14 mph /  22.5 km/h 72 % 0 in /  0.0 mm
14:02 69.3 °F /  20.7 °C 60.3 °F /  15.7 °C 30.1 in /  1019.9 hPa SW 3 mph /  4.8 km/h 10 mph /  16.1 km/h 73 % 0 in /  0.0 mm
14:12 69.6 °F /  20.9 °C 60.3 °F /  15.7 °C 30.1 in /  1019.9 hPa SW 6 mph /  9.7 km/h 11 mph /  17.7 km/h 72 % 0 in /  0.0 mm
14:17 70 °F /  21.1 °C 59.7 °F /  15.4 °C 30.1 in /  1019.5 hPa WSW 7 mph /  11.3 km/h 11 mph /  17.7 km/h 70 % 0 in /  0.0 mm
14:22 70.2 °F /  21.2 °C 59.5 °F /  15.3 °C 30.1 in /  1019.5 hPa WSW 5 mph /  8.0 km/h 11 mph /  17.7 km/h 69 % 0 in /  0.0 mm
14:27 70.9 °F /  21.6 °C 59.7 °F /  15.4 °C 30.1 in /  1019.5 hPa WSW 4 mph /  6.4 km/h 13 mph /  20.9 km/h 68 % 0 in /  0.0 mm
14:32 71.1 °F /  21.7 °C 60.4 °F /  15.8 °C 30.1 in /  1019.5 hPa West 4 mph /  6.4 km/h 13 mph /  20.9 km/h 69 % 0 in /  0.0 mm
14:37 71.1 °F /  21.7 °C 59.9 °F /  15.5 °C 30.1 in /  1019.5 hPa WNW 4 mph /  6.4 km/h 12 mph /  19.3 km/h 68 % 0 in /  0.0 mm
14:42 71.1 °F /  21.7 °C 59.9 °F /  15.5 °C 30.1 in /  1019.5 hPa SW 7 mph /  11.3 km/h 12 mph /  19.3 km/h 68 % 0 in /  0.0 mm
14:47 71.2 °F /  21.8 °C 60.1 °F /  15.6 °C 30.1 in /  1019.5 hPa West 7 mph /  11.3 km/h 12 mph /  19.3 km/h 68 % 0 in /  0.0 mm
14:52 71.2 °F /  21.8 °C 60.1 °F /  15.6 °C 30.1 in /  1019.5 hPa West 3 mph /  4.8 km/h 12 mph /  19.3 km/h 68 % 0 in /  0.0 mm
14:57 71.2 °F /  21.8 °C 60.1 °F /  15.6 °C 30.1 in /  1019.5 hPa WNW 2 mph /  3.2 km/h 11 mph /  17.7 km/h 68 % 0 in /  0.0 mm
15:02 71.4 °F /  21.9 °C 59.9 °F /  15.5 °C 30.1 in /  1019.5 hPa WNW 5 mph /  8.0 km/h 11 mph /  17.7 km/h 67 % 0 in /  0.0 mm
15:12 72 °F /  22.2 °C 60.4 °F /  15.8 °C 30.1 in /  1019.2 hPa NNW 2 mph /  3.2 km/h 9 mph /  14.5 km/h 67 % 0 in /  0.0 mm
15:17 72.3 °F /  22.4 °C 59.9 °F /  15.5 °C 30.1 in /  1019.2 hPa WNW 4 mph /  6.4 km/h 8 mph /  12.9 km/h 65 % 0 in /  0.0 mm
15:22 72 °F /  22.2 °C 59.5 °F /  15.3 °C 30.1 in /  1019.2 hPa West 5 mph /  8.0 km/h 8 mph /  12.9 km/h 65 % 0 in /  0.0 mm
15:27 72.3 °F /  22.4 °C 60.3 °F /  15.7 °C 30.1 in /  1019.2 hPa West 6 mph /  9.7 km/h 11 mph /  17.7 km/h 66 % 0 in /  0.0 mm
15:32 73.2 °F /  22.9 °C 60.8 °F /  16.0 °C 30.1 in /  1019.2 hPa West 8 mph /  12.9 km/h 11 mph /  17.7 km/h 65 % 0 in /  0.0 mm
15:42 73.2 °F /  22.9 °C 59.9 °F /  15.5 °C 30.1 in /  1018.8 hPa WNW 7 mph /  11.3 km/h 11 mph /  17.7 km/h 63 % 0 in /  0.0 mm
15:47 73.6 °F /  23.1 °C 59.7 °F /  15.4 °C 30.1 in /  1018.8 hPa WSW 8 mph /  12.9 km/h 11 mph /  17.7 km/h 62 % 0 in /  0.0 mm
15:52 73.6 °F /  23.1 °C 59.7 °F /  15.4 °C 30.1 in /  1018.8 hPa West 6 mph /  9.7 km/h 11 mph /  17.7 km/h 62 % 0 in /  0.0 mm
15:57 73.2 °F /  22.9 °C 60.3 °F /  15.7 °C 30.1 in /  1018.8 hPa WNW 5 mph /  8.0 km/h 10 mph /  16.1 km/h 64 % 0 in /  0.0 mm
16:02 73.6 °F /  23.1 °C 59.7 °F /  15.4 °C 30.1 in /  1018.8 hPa WSW 2 mph /  3.2 km/h 10 mph /  16.1 km/h 62 % 0 in /  0.0 mm
16:12 73.8 °F /  23.2 °C 59.5 °F /  15.3 °C 30.1 in /  1018.5 hPa WSW 5 mph /  8.0 km/h 9 mph /  14.5 km/h 61 % 0 in /  0.0 mm
16:17 73.8 °F /  23.2 °C 59.9 °F /  15.5 °C 30.1 in /  1018.5 hPa WSW 3 mph /  4.8 km/h 10 mph /  16.1 km/h 62 % 0 in /  0.0 mm
16:22 74.1 °F /  23.4 °C 59.4 °F /  15.2 °C 30.1 in /  1018.5 hPa WSW 7 mph /  11.3 km/h 10 mph /  16.1 km/h 60 % 0 in /  0.0 mm
16:27 74.3 °F /  23.5 °C 58.6 °F /  14.8 °C 30.1 in /  1018.2 hPa WNW 5 mph /  8.0 km/h 12 mph /  19.3 km/h 58 % 0 in /  0.0 mm
16:32 74.5 °F /  23.6 °C 58.8 °F /  14.9 °C 30.1 in /  1018.2 hPa West 5 mph /  8.0 km/h 12 mph /  19.3 km/h 58 % 0 in /  0.0 mm
16:42 75.6 °F /  24.2 °C 57.2 °F /  14.0 °C 30.1 in /  1018.2 hPa WNW 4 mph /  6.4 km/h 14 mph /  22.5 km/h 53 % 0 in /  0.0 mm
16:52 75.9 °F /  24.4 °C 58.6 °F /  14.8 °C 30.1 in /  1017.8 hPa WNW 8 mph /  12.9 km/h 12 mph /  19.3 km/h 55 % 0 in /  0.0 mm
16:57 76.1 °F /  24.5 °C 57.7 °F /  14.3 °C 30.1 in /  1017.8 hPa WSW 2 mph /  3.2 km/h 15 mph /  24.1 km/h 53 % 0 in /  0.0 mm
17:02 76.1 °F /  24.5 °C 58.3 °F /  14.6 °C 30.1 in /  1017.8 hPa West 6 mph /  9.7 km/h 15 mph /  24.1 km/h 54 % 0 in /  0.0 mm
17:12 75.4 °F /  24.1 °C 58.6 °F /  14.8 °C 30.1 in /  1017.8 hPa SSW 3 mph /  4.8 km/h 15 mph /  24.1 km/h 56 % 0 in /  0.0 mm
17:17 75 °F /  23.9 °C 58.8 °F /  14.9 °C 30.1 in /  1017.8 hPa WSW 4 mph /  6.4 km/h 13 mph /  20.9 km/h 57 % 0 in /  0.0 mm
17:22 75.4 °F /  24.1 °C 59 °F /  15.0 °C 30.1 in /  1017.8 hPa WNW 2 mph /  3.2 km/h 13 mph /  20.9 km/h 57 % 0 in /  0.0 mm
17:27 75.7 °F /  24.3 °C 59.4 °F /  15.2 °C 30.1 in /  1017.8 hPa West 5 mph /  8.0 km/h 8 mph /  12.9 km/h 57 % 0 in /  0.0 mm
17:32 75.6 °F /  24.2 °C 58.8 °F /  14.9 °C 30.1 in /  1017.8 hPa WNW 6 mph /  9.7 km/h 8 mph /  12.9 km/h 56 % 0 in /  0.0 mm
17:37 75.7 °F /  24.3 °C 59.4 °F /  15.2 °C 30.1 in /  1017.8 hPa WNW 4 mph /  6.4 km/h 12 mph /  19.3 km/h 57 % 0 in /  0.0 mm
17:42 76.3 °F /  24.6 °C 59 °F /  15.0 °C 30.1 in /  1017.8 hPa WSW 5 mph /  8.0 km/h 12 mph /  19.3 km/h 55 % 0 in /  0.0 mm
17:52 76.6 °F /  24.8 °C 59.2 °F /  15.1 °C 30.1 in /  1017.8 hPa WNW 3 mph /  4.8 km/h 12 mph /  19.3 km/h 55 % 0 in /  0.0 mm
17:57 76.3 °F /  24.6 °C 58.5 °F /  14.7 °C 30.1 in /  1017.5 hPa WNW 6 mph /  9.7 km/h 11 mph /  17.7 km/h 54 % 0 in /  0.0 mm
18:02 75.9 °F /  24.4 °C 58.6 °F /  14.8 °C 30.1 in /  1017.5 hPa NW 3 mph /  4.8 km/h 11 mph /  17.7 km/h 55 % 0 in /  0.0 mm
18:12 76.8 °F /  24.9 °C 59.9 °F /  15.5 °C 30.1 in /  1017.5 hPa West 2 mph /  3.2 km/h 11 mph /  17.7 km/h 56 % 0 in /  0.0 mm
18:17 77.2 °F /  25.1 °C 59.2 °F /  15.1 °C 30.1 in /  1017.5 hPa West 2 mph /  3.2 km/h 9 mph /  14.5 km/h 54 % 0 in /  0.0 mm
18:22 77 °F /  25.0 °C 59 °F /  15.0 °C 30.1 in /  1017.5 hPa West 4 mph /  6.4 km/h 9 mph /  14.5 km/h 54 % 0 in /  0.0 mm
18:32 76.1 °F /  24.5 °C 59.7 °F /  15.4 °C 30 in /  1017.2 hPa WSW 2 mph /  3.2 km/h 9 mph /  14.5 km/h 57 % 0 in /  0.0 mm
18:42 77.2 °F /  25.1 °C 59.7 °F /  15.4 °C 30 in /  1017.2 hPa West 1 mph /  1.6 km/h 7 mph /  11.3 km/h 55 % 0 in /  0.0 mm
18:47 77.5 °F /  25.3 °C 59.5 °F /  15.3 °C 30 in /  1017.2 hPa WNW 4 mph /  6.4 km/h 7 mph /  11.3 km/h 54 % 0 in /  0.0 mm
18:57 76.3 °F /  24.6 °C 59.4 °F /  15.2 °C 30 in /  1017.2 hPa West 4 mph /  6.4 km/h 11 mph /  17.7 km/h 56 % 0 in /  0.0 mm
19:02 75.9 °F /  24.4 °C 59.5 °F /  15.3 °C 30.1 in /  1017.5 hPa SW 4 mph /  6.4 km/h 11 mph /  17.7 km/h 57 % 0 in /  0.0 mm
19:12 75.6 °F /  24.2 °C 59.7 °F /  15.4 °C 30 in /  1017.2 hPa SW 2 mph /  3.2 km/h 11 mph /  17.7 km/h 58 % 0 in /  0.0 mm
19:22 76.8 °F /  24.9 °C 61 °F /  16.1 °C 30 in /  1017.2 hPa SW 3 mph /  4.8 km/h 7 mph /  11.3 km/h 58 % 0 in /  0.0 mm
19:27 76.8 °F /  24.9 °C 60.4 °F /  15.8 °C 30 in /  1017.2 hPa SW 5 mph /  8.0 km/h 6 mph /  9.7 km/h 57 % 0 in /  0.0 mm
19:32 76.3 °F /  24.6 °C 59.9 °F /  15.5 °C 30 in /  1017.2 hPa WSW 5 mph /  8.0 km/h 6 mph /  9.7 km/h 57 % 0 in /  0.0 mm
19:42 76.8 °F /  24.9 °C 60.4 °F /  15.8 °C 30 in /  1017.2 hPa SW 1 mph /  1.6 km/h 6 mph /  9.7 km/h 57 % 0 in /  0.0 mm
19:47 77.2 °F /  25.1 °C 60.3 °F /  15.7 °C 30 in /  1017.2 hPa SW 5 mph /  8.0 km/h 6 mph /  9.7 km/h 56 % 0 in /  0.0 mm
19:57 77.2 °F /  25.1 °C 60.8 °F /  16.0 °C 30 in /  1017.2 hPa SW 4 mph /  6.4 km/h 6 mph /  9.7 km/h 57 % 0 in /  0.0 mm
20:02 77.4 °F /  25.2 °C 60.4 °F /  15.8 °C 30 in /  1017.2 hPa WSW 1 mph /  1.6 km/h 6 mph /  9.7 km/h 56 % 0 in /  0.0 mm
20:12 77.4 °F /  25.2 °C 59.9 °F /  15.5 °C 30 in /  1016.8 hPa WSW 2 mph /  3.2 km/h 6 mph /  9.7 km/h 55 % 0 in /  0.0 mm
20:17 77.5 °F /  25.3 °C 60.6 °F /  15.9 °C 30 in /  1016.8 hPa WNW 2 mph /  3.2 km/h 7 mph /  11.3 km/h 56 % 0 in /  0.0 mm
20:27 77.5 °F /  25.3 °C 60.1 °F /  15.6 °C 30 in /  1016.8 hPa West 3 mph /  4.8 km/h 4 mph /  6.4 km/h 55 % 0 in /  0.0 mm
20:32 77.2 °F /  25.1 °C 60.3 °F /  15.7 °C 30 in /  1016.8 hPa NW 1 mph /  1.6 km/h 4 mph /  6.4 km/h 56 % 0 in /  0.0 mm
20:42 77.4 °F /  25.2 °C 60.4 °F /  15.8 °C 30 in /  1016.8 hPa Calm   4 mph /  6.4 km/h 56 % 0 in /  0.0 mm
20:47 78.1 °F /  25.6 °C 60.6 °F /  15.9 °C 30 in /  1016.8 hPa WNW 1 mph /  1.6 km/h 5 mph /  8.0 km/h 55 % 0 in /  0.0 mm
20:52 77.7 °F /  25.4 °C 60.3 °F /  15.7 °C 30 in /  1016.8 hPa Calm   5 mph /  8.0 km/h 55 % 0 in /  0.0 mm
20:57 77.5 °F /  25.3 °C 60.1 °F /  15.6 °C 30 in /  1016.8 hPa Calm   2 mph /  3.2 km/h 55 % 0 in /  0.0 mm
21:02 77.9 °F /  25.5 °C 60.4 °F /  15.8 °C 30 in /  1016.8 hPa Calm   2 mph /  3.2 km/h 55 % 0 in /  0.0 mm
21:12 77.5 °F /  25.3 °C 60.1 °F /  15.6 °C 30 in /  1016.5 hPa Calm   2 mph /  3.2 km/h 55 % 0 in /  0.0 mm
21:17 77.4 °F /  25.2 °C 60.4 °F /  15.8 °C 30 in /  1016.8 hPa Calm   1 mph /  1.6 km/h 56 % 0 in /  0.0 mm
21:27 76.5 °F /  24.7 °C 60.6 °F /  15.9 °C 30 in /  1016.5 hPa Calm   1 mph /  1.6 km/h 58 % 0 in /  0.0 mm
21:32 75.6 °F /  24.2 °C 60.3 °F /  15.7 °C 30 in /  1016.5 hPa Calm   1 mph /  1.6 km/h 59 % 0 in /  0.0 mm
21:37 74.8 °F /  23.8 °C 60.1 °F /  15.6 °C 30 in /  1016.8 hPa Calm   2 mph /  3.2 km/h 60 % 0 in /  0.0 mm
21:42 74.3 °F /  23.5 °C 59.9 °F /  15.5 °C 30 in /  1016.8 hPa Calm   2 mph /  3.2 km/h 61 % 0 in /  0.0 mm
21:47 73.6 °F /  23.1 °C 60.3 °F /  15.7 °C 30 in /  1016.8 hPa Calm   2 mph /  3.2 km/h 63 % 0 in /  0.0 mm
21:52 72.5 °F /  22.5 °C 59.5 °F /  15.3 °C 30 in /  1016.8 hPa Calm   1 mph /  1.6 km/h 64 % 0 in /  0.0 mm
21:57 71.8 °F /  22.1 °C 59.7 °F /  15.4 °C 30 in /  1016.8 hPa Calm     66 % 0 in /  0.0 mm
22:02 71.1 °F /  21.7 °C 59.5 °F /  15.3 °C 30 in /  1016.8 hPa Calm     67 % 0 in /  0.0 mm
22:12 70 °F /  21.1 °C 59.4 °F /  15.2 °C 30 in /  1017.2 hPa Calm     69 % 0 in /  0.0 mm
22:17 69.6 °F /  20.9 °C 59.7 °F /  15.4 °C 30 in /  1017.2 hPa Calm   1 mph /  1.6 km/h 71 % 0 in /  0.0 mm
22:22 69.1 °F /  20.6 °C 59.4 °F /  15.2 °C 30 in /  1017.2 hPa Calm   1 mph /  1.6 km/h 71 % 0 in /  0.0 mm
22:27 68.5 °F /  20.3 °C 59.2 °F /  15.1 °C 30 in /  1017.2 hPa Calm     72 % 0 in /  0.0 mm
22:32 68.5 °F /  20.3 °C 59.5 °F /  15.3 °C 30 in /  1017.2 hPa Calm     73 % 0 in /  0.0 mm
22:37 68.2 °F /  20.1 °C 59.2 °F /  15.1 °C 30 in /  1017.2 hPa Calm     73 % 0 in /  0.0 mm
22:42 67.8 °F /  19.9 °C 58.8 °F /  14.9 °C 30 in /  1017.2 hPa Calm     73 % 0 in /  0.0 mm
22:47 67.6 °F /  19.8 °C 59 °F /  15.0 °C 30 in /  1017.2 hPa Calm     74 % 0 in /  0.0 mm
22:52 67.1 °F /  19.5 °C 58.8 °F /  14.9 °C 30 in /  1017.2 hPa Calm     75 % 0 in /  0.0 mm
22:57 66.9 °F /  19.4 °C 59.2 °F /  15.1 °C 30 in /  1017.2 hPa Calm     76 % 0 in /  0.0 mm
23:02 66.7 °F /  19.3 °C 59.4 °F /  15.2 °C 30 in /  1017.2 hPa Calm     77 % 0 in /  0.0 mm
23:12 66.4 °F /  19.1 °C 59.4 °F /  15.2 °C 30 in /  1017.2 hPa Calm     78 % 0 in /  0.0 mm
23:17 65.8 °F /  18.8 °C 59.2 °F /  15.1 °C 30 in /  1017.2 hPa Calm     79 % 0 in /  0.0 mm
23:22 65.5 °F /  18.6 °C 58.8 °F /  14.9 °C 30 in /  1017.2 hPa Calm     79 % 0 in /  0.0 mm
23:27 65.5 °F /  18.6 °C 59.2 °F /  15.1 °C 30 in /  1017.2 hPa Calm     80 % 0 in /  0.0 mm
23:32 65.5 °F /  18.6 °C 59.2 °F /  15.1 °C 30 in /  1017.2 hPa Calm     80 % 0 in /  0.0 mm
23:37 65.1 °F /  18.4 °C 58.8 °F /  14.9 °C 30 in /  1017.2 hPa Calm     80 % 0 in /  0.0 mm
23:42 65.1 °F /  18.4 °C 58.8 °F /  14.9 °C 30 in /  1017.2 hPa Calm     80 % 0 in /  0.0 mm
23:52 64.2 °F /  17.9 °C 58.3 °F /  14.6 °C 30 in /  1017.2 hPa Calm     81 % 0 in /  0.0 mm
Meteo18
Compliments of Weather Underground - 4 mb

Script developed by  Jim McMurry - jmcmurry@mwt.net Adapted for the template by  Wim van der Kuil - Leuven-Template.eu

You find our weather info also at:

European Weather Network

Weather Underground

Equipment we use:

Weather-station
Davis Vue

Weather-program
Meteohub

Weather-server
Raspberry PI 2 B+

Provider
1 and 1

Davis Vue

Meteohub

Raspberry PI 2 B+

1 and 1